Time;durP1;ratioP1;P1;durP2;ratioP2;P2;SDS_P1;SDS_P2;PMS_P1;PMS_P2;Temp;Humidity;BMP_temperature;BMP_pressure;BME280_temperature;BME280_humidity;BME280_pressure;Samples;Min_cycle;Max_cycle;Signal;HPM_P1;HPM_P2
2022/06/21 00:00:26;;;;;;;;;;;;;;;22.48;39.40;94809.84;2035003;29;1482;-59
2022/06/21 00:01:28;;;;;;;;;;;;;;;22.50;39.38;94804.25;2034815;29;1659;-57
2022/06/21 00:02:31;;;;;;;;;;;;;;;22.47;39.34;94805.50;2033586;29;1086;-60
2022/06/21 00:03:33;;;;;;;;;;;;;;;22.46;39.42;94803.88;2039761;29;1483;-55
2022/06/21 00:04:36;;;;;;;;;;;;;;;22.49;39.67;94807.97;2034220;29;1558;-60
2022/06/21 00:05:39;;;;;;;;;;;;;;;22.48;39.59;94804.47;2037694;29;1583;-56
2022/06/21 00:06:42;;;;;;;;;;;;;;;22.49;39.67;94798.06;2041629;29;1121;-59
2022/06/21 00:07:44;;;;;;;;;;;;;;;22.47;39.45;94800.16;2041875;29;1041;-60
2022/06/21 00:08:47;;;;;;;;;;;;;;;22.44;39.70;94800.63;2041867;29;1081;-59
2022/06/21 00:09:49;;;;;;;;;;;;;;;22.46;39.59;94797.72;2040794;29;1522;-59
2022/06/21 00:10:52;;;;;;;;;;;;;;;22.44;39.58;94803.28;2034631;29;1468;-60
2022/06/21 00:11:56;;;;;;;;;;;;;;;22.44;39.36;94803.28;2041726;29;1018;-59
2022/06/21 00:12:58;;;;;;;;;;;;;;;22.45;39.32;94796.06;2037909;29;1576;-57
2022/06/21 00:14:02;;;;;;;;;;;;;;;22.43;39.59;94795.50;2033970;29;1087;-60
2022/06/21 00:15:04;;;;;;;;;;;;;;;22.41;39.65;94803.75;2032366;28;1736;-60
2022/06/21 00:16:08;;;;;;;;;;;;;;;22.41;39.43;94797.59;2036738;29;1168;-60
2022/06/21 00:17:12;;;;;;;;;;;;;;;22.40;39.63;94796.78;2039236;29;1915;-59
2022/06/21 00:18:16;;;;;;;;;;;;;;;22.40;39.61;94788.75;2041288;29;1571;-57
2022/06/21 00:19:19;;;;;;;;;;;;;;;22.40;39.41;94791.41;2037570;29;1665;-59
2022/06/21 00:20:24;;;;;;;;;;;;;;;22.41;39.50;94801.06;2037211;29;1668;-61
2022/06/21 00:21:28;;;;;;;;;;;;;;;22.41;39.49;94790.38;2039573;29;1704;-60
2022/06/21 00:22:31;;;;;;;;;;;;;;;22.39;39.51;94792.44;2041632;29;1113;-60
2022/06/21 00:23:33;;;;;;;;;;;;;;;22.39;39.59;94791.63;2041919;29;1094;-58
2022/06/21 00:24:36;;;;;;;;;;;;;;;22.39;39.34;94797.78;2041222;29;1973;-60
2022/06/21 00:25:37;;;;;;;;;;;;;;;22.40;39.24;94796.78;2039231;29;1460;-58
2022/06/21 00:26:40;;;;;;;;;;;;;;;22.42;39.50;94801.88;2034240;29;1624;-60
2022/06/21 00:27:43;;;;;;;;;;;;;;;22.39;39.32;94799.66;2029409;29;1252;-60
2022/06/21 00:28:47;;;;;;;;;;;;;;;22.39;39.26;94805.81;2033920;29;1024;-60
2022/06/21 00:29:48;;;;;;;;;;;;;;;22.40;39.15;94804.00;2036915;29;1554;-59
2022/06/21 00:30:52;;;;;;;;;;;;;;;22.41;39.34;94800.25;2040623;29;1484;-57
2022/06/21 00:31:55;;;;;;;;;;;;;;;22.38;39.40;94806.88;2034244;29;1097;-59
2022/06/21 00:32:57;;;;;;;;;;;;;;;22.40;39.27;94798.63;2035439;29;1557;-59
2022/06/21 00:34:04;;;;;;;;;;;;;;;22.38;39.35;94796.19;2041699;29;1023;-59
2022/06/21 00:35:08;;;;;;;;;;;;;;;22.39;39.29;94796.97;2041229;29;1561;-59
2022/06/21 00:36:18;;;;;;;;;;;;;;;22.36;39.21;94787.53;2034101;29;1654;-59
2022/06/21 00:37:22;;;;;;;;;;;;;;;22.35;39.09;94791.28;2034464;29;1470;-61
2022/06/21 00:38:26;;;;;;;;;;;;;;;22.39;39.06;94789.75;2032937;29;1907;-58
2022/06/21 00:39:29;;;;;;;;;;;;;;;22.41;39.27;94793.03;2040367;29;1490;-61
2022/06/21 00:40:32;;;;;;;;;;;;;;;22.38;39.15;94784.66;2041092;29;1423;-61
2022/06/21 00:41:38;;;;;;;;;;;;;;;22.35;39.08;94776.03;2039288;29;1553;-60
2022/06/21 00:42:41;;;;;;;;;;;;;;;22.36;39.25;94787.53;2041680;29;1768;-59
2022/06/21 00:43:48;;;;;;;;;;;;;;;22.37;39.10;94788.34;2041687;29;1072;-60
2022/06/21 00:44:56;;;;;;;;;;;;;;;22.35;39.22;94785.94;2041220;29;1509;-60
2022/06/21 00:45:59;;;;;;;;;;;;;;;22.37;39.23;94783.84;2041442;29;1808;-58
2022/06/21 00:47:03;;;;;;;;;;;;;;;22.35;39.06;94780.56;2040410;29;1723;-61
2022/06/21 00:48:11;;;;;;;;;;;;;;;22.37;39.18;94789.19;2041269;29;1700;-61
2022/06/21 00:49:16;;;;;;;;;;;;;;;22.35;39.12;94780.56;2036687;29;1465;-61
2022/06/21 00:50:22;;;;;;;;;;;;;;;22.35;39.28;94791.28;2036530;29;1998;-60
2022/06/21 00:51:27;;;;;;;;;;;;;;;22.34;38.93;94790.47;2033679;29;1093;-61
2022/06/21 00:52:35;;;;;;;;;;;;;;;22.34;39.26;94784.31;2038897;29;1469;-61
2022/06/21 00:53:38;;;;;;;;;;;;;;;22.32;39.28;94794.41;2041140;29;1152;-57
2022/06/21 00:54:47;;;;;;;;;;;;;;;22.32;39.26;94797.09;2034286;29;1537;-60
2022/06/21 00:55:51;;;;;;;;;;;;;;;22.33;39.43;94793.34;2034964;29;1556;-61
2022/06/21 00:56:57;;;;;;;;;;;;;;;22.33;39.26;94796.03;2041289;29;1161;-60
2022/06/21 00:57:59;;;;;;;;;;;;;;;22.31;39.37;94790.13;2036279;29;1914;-61
2022/06/21 00:59:17;;;;;;;;;;;;;;;22.29;39.35;94798.34;2033667;29;1076;-59
2022/06/21 01:00:28;;;;;;;;;;;;;;;22.29;39.36;94792.19;2029506;29;1086;-71
2022/06/21 01:01:32;;;;;;;;;;;;;;;22.26;39.13;94798.81;2028703;29;1341;-61
2022/06/21 01:02:36;;;;;;;;;;;;;;;22.25;39.11;94791.00;2033526;29;1173;-60
2022/06/21 01:03:40;;;;;;;;;;;;;;;22.23;39.33;94793.09;2033796;29;1024;-60
2022/06/21 01:04:45;;;;;;;;;;;;;;;22.24;39.21;94795.53;2037207;29;1467;-61
2022/06/21 01:05:47;;;;;;;;;;;;;;;22.23;39.48;94790.44;2041277;29;1450;-60
2022/06/21 01:06:52;;;;;;;;;;;;;;;22.22;39.18;94791.47;2041261;29;1094;-61
2022/06/21 01:07:56;;;;;;;;;;;;;;;22.22;39.42;94797.63;2041568;29;1023;-60
2022/06/21 01:09:02;;;;;;;;;;;;;;;22.25;39.25;94793.69;2040840;29;1145;-59
2022/06/21 01:10:06;;;;;;;;;;;;;;;22.22;39.43;94796.81;2045933;29;1153;-61
2022/06/21 01:11:11;;;;;;;;;;;;;;;22.20;39.58;94796.25;2041314;29;1500;-60
2022/06/21 01:12:15;;;;;;;;;;;;;;;22.16;39.53;94790.50;2032093;28;1689;-60
2022/06/21 01:13:21;;;;;;;;;;;;;;;22.16;39.34;94789.69;2033362;29;1333;-61
2022/06/21 01:14:24;;;;;;;;;;;;;;;22.11;39.52;94780.50;2033606;29;1106;-62
2022/06/21 01:15:30;;;;;;;;;;;;;;;22.12;39.41;94790.16;2033605;29;1165;-59
2022/06/21 01:16:33;;;;;;;;;;;;;;;22.15;39.42;94788.06;2033460;29;1349;-57
2022/06/21 01:17:37;;;;;;;;;;;;;;;22.16;39.73;94787.03;2033899;29;1079;-59
2022/06/21 01:18:40;;;;;;;;;;;;;;;22.13;39.49;94785.59;2033469;29;1910;-59
2022/06/21 01:19:45;;;;;;;;;;;;;;;22.11;39.67;94785.84;2033613;29;1966;-59
2022/06/21 01:20:48;;;;;;;;;;;;;;;22.11;39.78;94791.19;2037669;29;1788;-59
2022/06/21 01:21:53;;;;;;;;;;;;;;;22.10;39.62;94792.22;2033798;29;1071;-60
2022/06/21 01:23:00;;;;;;;;;;;;;;;22.09;39.58;94787.94;2029019;29;1704;-58
2022/06/21 01:24:09;;;;;;;;;;;;;;;22.05;39.76;94791.28;2029961;29;1341;-61
2022/06/21 01:25:24;;;;;;;;;;;;;;;22.05;39.67;94791.28;2034646;29;1718;-60
2022/06/21 01:26:40;;;;;;;;;;;;;;;22.05;39.73;94789.44;2035206;29;1133;-60
2022/06/21 01:27:47;;;;;;;;;;;;;;;22.04;40.13;94795.00;2042620;29;1673;-60
2022/06/21 01:28:50;;;;;;;;;;;;;;;22.03;40.12;94794.19;2042795;29;1700;-58
2022/06/21 01:29:53;;;;;;;;;;;;;;;22.00;40.03;94796.50;2035048;29;1962;-61
2022/06/21 01:30:56;;;;;;;;;;;;;;;21.98;40.01;94793.22;2034886;29;1642;-61
2022/06/21 01:32:01;;;;;;;;;;;;;;;21.99;40.20;94795.66;2042364;29;1747;-61
2022/06/21 01:33:03;;;;;;;;;;;;;;;22.02;40.01;94791.72;2042740;29;1275;-62
2022/06/21 01:34:07;;;;;;;;;;;;;;;22.02;40.05;94791.72;2040990;29;1089;-60
2022/06/21 01:35:11;;;;;;;;;;;;;;;22.05;40.01;94794.78;2037154;29;1225;-61
2022/06/21 01:36:17;;;;;;;;;;;;;;;22.08;40.11;94796.16;2042781;29;1637;-62
2022/06/21 01:37:21;;;;;;;;;;;;;;;22.09;40.21;94800.50;2042799;29;1026;-61
2022/06/21 01:38:26;;;;;;;;;;;;;;;22.07;40.41;94800.72;2037997;29;1911;-60
2022/06/21 01:39:32;;;;;;;;;;;;;;;22.03;40.35;94798.72;2035089;29;1068;-60
2022/06/21 01:40:37;;;;;;;;;;;;;;;22.05;40.52;94801.97;2034877;29;1341;-60
2022/06/21 01:41:43;;;;;;;;;;;;;;;22.07;40.59;94806.06;2035061;29;1081;-59
2022/06/21 01:42:48;;;;;;;;;;;;;;;22.11;40.35;94801.91;2040258;29;1657;-58
2022/06/21 01:43:52;;;;;;;;;;;;;;;22.14;40.30;94803.31;2042823;29;1052;-61
2022/06/21 01:44:56;;;;;;;;;;;;;;;22.14;40.24;94806.00;2042898;29;1007;-60
2022/06/21 01:46:15;;;;;;;;;;;;;;;22.13;40.57;94804.34;2035678;28;1964;-58
2022/06/21 01:47:19;;;;;;;;;;;;;;;22.07;40.74;94800.72;2034578;29;1121;-60
2022/06/21 01:48:23;;;;;;;;;;;;;;;22.03;40.60;94804.88;2035246;29;1043;-71
2022/06/21 01:49:27;;;;;;;;;;;;;;;21.97;40.79;94808.47;2034917;29;1172;-58
2022/06/21 01:50:30;;;;;;;;;;;;;;;21.98;40.57;94802.06;2034594;29;1635;-60
2022/06/21 01:51:34;;;;;;;;;;;;;;;22.03;40.75;94798.72;2034999;29;1105;-59
2022/06/21 01:52:41;;;;;;;;;;;;;;;22.00;40.70;94800.00;2034955;29;1769;-59
2022/06/21 01:53:43;;;;;;;;;;;;;;;21.96;40.88;94801.47;2034962;29;1117;-58
2022/06/21 01:54:51;;;;;;;;;;;;;;;21.93;40.75;94806.44;2034707;29;1465;-59
2022/06/21 01:55:55;;;;;;;;;;;;;;;21.95;40.71;94799.00;2035091;29;1023;-58
2022/06/21 01:56:59;;;;;;;;;;;;;;;21.97;40.86;94797.78;2030687;29;1671;-59
2022/06/21 01:58:02;;;;;;;;;;;;;;;21.96;41.00;94801.47;2030397;29;1656;-57
2022/06/21 01:59:07;;;;;;;;;;;;;;;21.91;40.99;94798.66;2034781;29;1902;-59
2022/06/21 02:00:09;;;;;;;;;;;;;;;21.87;41.19;94798.25;2041334;29;1445;-58
2022/06/21 02:01:16;;;;;;;;;;;;;;;21.85;40.90;94796.84;2042589;29;1137;-59
2022/06/21 02:02:20;;;;;;;;;;;;;;;21.87;40.77;94803.59;2042517;29;1637;-58
2022/06/21 02:03:27;;;;;;;;;;;;;;;21.92;40.99;94796.78;2042784;29;1057;-59
2022/06/21 02:04:31;;;;;;;;;;;;;;;21.93;40.97;94793.88;2042260;29;1649;-59
2022/06/21 02:05:36;;;;;;;;;;;;;;;21.89;40.91;94803.41;2042708;29;1426;-59
2022/06/21 02:06:39;;;;;;;;;;;;;;;21.90;41.04;94803.16;2042227;29;1653;-57
2022/06/21 02:07:44;;;;;;;;;;;;;;;21.88;41.16;94799.91;2043181;29;1592;-60
2022/06/21 02:08:48;;;;;;;;;;;;;;;21.90;41.02;94797.81;2036655;28;1889;-54
2022/06/21 02:09:52;;;;;;;;;;;;;;;21.93;41.04;94801.88;2047934;28;1112;-60
2022/06/21 02:10:56;;;;;;;;;;;;;;;21.94;41.06;94805.38;2046457;28;1685;-60
2022/06/21 02:12:02;;;;;;;;;;;;;;;21.93;41.25;94803.75;2041301;29;1557;-60
2022/06/21 02:13:06;;;;;;;;;;;;;;;21.93;40.84;94801.88;2042511;29;1756;-60
2022/06/21 02:14:30;;;;;;;;;;;;;;;21.93;41.07;94809.09;2042165;29;1446;-60
2022/06/21 02:15:35;;;;;;;;;;;;;;;21.88;40.84;94805.25;2034789;29;1591;-60
2022/06/21 02:16:39;;;;;;;;;;;;;;;21.88;40.94;94802.59;2034656;29;1641;-56
2022/06/21 02:17:43;;;;;;;;;;;;;;;21.88;40.86;94802.59;2036694;29;1518;-60
2022/06/21 02:18:48;;;;;;;;;;;;;;;21.89;41.15;94803.41;2041073;29;1642;-60
2022/06/21 02:19:53;;;;;;;;;;;;;;;21.87;41.06;94794.78;2031806;29;1974;-60
2022/06/21 02:20:59;;;;;;;;;;;;;;;21.86;41.01;94793.16;2029783;29;1309;-60
2022/06/21 02:22:01;;;;;;;;;;;;;;;21.87;41.00;94797.44;2034820;29;1045;-60
2022/06/21 02:23:05;;;;;;;;;;;;;;;21.87;40.90;94795.59;2038100;29;1591;-60
2022/06/21 02:24:08;;;;;;;;;;;;;;;21.91;41.01;94798.66;2042609;29;1453;-61
2022/06/21 02:25:15;;;;;;;;;;;;;;;21.92;41.05;94800.28;2041109;29;1485;-57
2022/06/21 02:26:17;;;;;;;;;;;;;;;21.92;41.01;94789.56;2040357;29;1736;-61
2022/06/21 02:27:24;;;;;;;;;;;;;;;21.90;41.07;94795.13;2042453;29;1109;-58
2022/06/21 02:28:28;;;;;;;;;;;;;;;21.89;40.95;94798.84;2042496;29;1030;-60
2022/06/21 02:29:31;;;;;;;;;;;;;;;21.89;41.07;94796.19;2042466;29;1102;-60
2022/06/21 02:30:36;;;;;;;;;;;;;;;21.88;40.99;94796.41;2042114;29;999;-66
2022/06/21 02:31:39;;;;;;;;;;;;;;;21.99;41.11;94787.63;2033812;29;1094;-59
2022/06/21 02:32:42;;;;;;;;;;;;;;;22.09;40.68;94779.91;2040924;29;1519;-61
2022/06/21 02:33:46;;;;;;;;;;;;;;;22.17;40.69;94784.13;2034676;29;1066;-60
2022/06/21 02:34:49;;;;;;;;;;;;;;;22.20;40.52;94781.00;2036332;29;1676;-59
2022/06/21 02:35:54;;;;;;;;;;;;;;;22.20;40.34;94778.31;2041782;29;1527;-60
2022/06/21 02:36:58;;;;;;;;;;;;;;;22.25;40.24;94782.97;2042488;29;1053;-60
2022/06/21 02:38:03;;;;;;;;;;;;;;;22.26;40.18;94781.94;2036985;29;1638;-59
2022/06/21 02:39:06;;;;;;;;;;;;;;;22.28;40.25;94782.50;2036454;29;1505;-60
2022/06/21 02:40:12;;;;;;;;;;;;;;;22.29;40.24;94793.00;2036650;29;1903;-60
2022/06/21 02:41:18;;;;;;;;;;;;;;;22.29;40.14;94786.84;2034529;29;1106;-62
2022/06/21 02:42:25;;;;;;;;;;;;;;;22.32;40.04;94781.84;2030191;29;1038;-59
2022/06/21 02:43:30;;;;;;;;;;;;;;;22.31;40.08;94790.94;2030586;29;1732;-60
2022/06/21 02:44:38;;;;;;;;;;;;;;;22.32;39.95;94783.72;2041916;29;1192;-60
2022/06/21 02:45:44;;;;;;;;;;;;;;;22.30;40.02;94775.88;2041060;29;1518;-60
2022/06/21 02:46:49;;;;;;;;;;;;;;;22.30;40.27;94778.56;2041714;29;1986;-60
2022/06/21 02:47:52;;;;;;;;;;;;;;;22.31;40.00;94785.56;2036497;29;1482;-59
2022/06/21 02:48:58;;;;;;;;;;;;;;;22.33;40.31;94782.66;2034354;29;1043;-60
2022/06/21 02:50:01;;;;;;;;;;;;;;;22.34;40.07;94785.13;2034348;29;1145;-59
2022/06/21 02:51:06;;;;;;;;;;;;;;;22.34;40.39;94779.75;2034360;29;1125;-59
2022/06/21 02:52:11;;;;;;;;;;;;;;;22.35;40.50;94789.41;2035232;29;1857;-60
2022/06/21 02:53:18;;;;;;;;;;;;;;;22.35;40.19;94791.28;2042274;29;1125;-60
2022/06/21 02:54:22;;;;;;;;;;;;;;;22.38;40.56;94790.00;2032225;28;1716;-64
2022/06/21 02:55:34;;;;;;;;;;;;;;;22.38;40.30;94780.13;2037143;29;1572;-60
2022/06/21 02:56:40;;;;;;;;;;;;;;;22.36;40.19;94782.19;2045452;29;1537;-59
2022/06/21 02:57:45;;;;;;;;;;;;;;;22.38;40.40;94785.47;2046388;29;1285;-60
2022/06/21 02:58:50;;;;;;;;;;;;;;;22.37;40.55;94786.53;2044378;29;1437;-59
2022/06/21 02:59:56;;;;;;;;;;;;;;;22.38;40.38;94777.44;2044837;28;1907;-60
2022/06/21 03:00:59;;;;;;;;;;;;;;;22.38;40.20;94774.75;2040189;29;1676;-56
2022/06/21 03:02:07;;;;;;;;;;;;;;;22.37;40.47;94788.34;2041874;29;1676;-60
2022/06/21 03:03:13;;;;;;;;;;;;;;;22.23;40.69;94777.06;2042219;29;1102;-60
2022/06/21 03:04:18;;;;;;;;;;;;;;;21.97;41.33;94783.56;2035315;29;1684;-66
2022/06/21 03:05:21;;;;;;;;;;;;;;;21.99;41.47;94779.63;2029911;29;1361;-54
2022/06/21 03:06:25;;;;;;;;;;;;;;;21.77;41.81;94779.28;2033566;29;1712;-59
2022/06/21 03:07:28;;;;;;;;;;;;;;;21.75;41.97;94775.19;2048843;29;1631;-59
2022/06/21 03:08:32;;;;;;;;;;;;;;;21.71;41.87;94782.00;2034255;29;1005;-59
2022/06/21 03:09:34;;;;;;;;;;;;;;;21.66;42.07;94777.34;2039654;29;1393;-60
2022/06/21 03:10:40;;;;;;;;;;;;;;;21.68;42.01;94780.59;2036362;29;1498;-60
2022/06/21 03:11:43;;;;;;;;;;;;;;;21.69;41.69;94776.91;2034813;29;1664;-59
2022/06/21 03:12:48;;;;;;;;;;;;;;;21.52;41.96;94771.34;2034171;29;1125;-60
2022/06/21 03:13:50;;;;;;;;;;;;;;;21.47;42.47;94773.84;2034277;29;1642;-59
2022/06/21 03:14:55;;;;;;;;;;;;;;;21.50;42.13;94776.09;2033989;29;1085;-57
2022/06/21 03:15:58;;;;;;;;;;;;;;;21.51;42.13;94780.38;2038211;29;1536;-59
2022/06/21 03:17:02;;;;;;;;;;;;;;;21.45;42.34;94775.94;2034031;29;1263;-54
2022/06/21 03:18:06;;;;;;;;;;;;;;;21.38;42.44;94777.88;2041830;29;1168;-59
2022/06/21 03:19:17;;;;;;;;;;;;;;;21.43;42.59;94778.03;2037804;29;1474;-60
2022/06/21 03:20:19;;;;;;;;;;;;;;;21.44;42.29;94774.31;2034113;29;1980;-60
2022/06/21 03:21:26;;;;;;;;;;;;;;;21.43;42.39;94788.72;2033930;29;1306;-59
2022/06/21 03:22:30;;;;;;;;;;;;;;;21.47;42.60;94776.53;2034198;29;995;-60
2022/06/21 03:23:34;;;;;;;;;;;;;;;21.45;42.59;94775.94;2040763;29;1853;-64
2022/06/21 03:24:36;;;;;;;;;;;;;;;21.34;42.69;94772.16;2038928;29;1714;-60
2022/06/21 03:25:42;;;;;;;;;;;;;;;21.30;42.68;94784.31;2035028;29;1540;-59
2022/06/21 03:26:44;;;;;;;;;;;;;;;21.19;42.82;94774.34;2041521;29;2050;-58
2022/06/21 03:27:53;;;;;;;;;;;;;;;21.18;42.89;94776.22;2036975;29;1480;-60
2022/06/21 03:28:57;;;;;;;;;;;;;;;21.13;42.75;94768.00;2036158;29;1577;-58
2022/06/21 03:30:00;;;;;;;;;;;;;;;21.17;42.52;94763.91;2042158;29;1029;-59
2022/06/21 03:31:06;;;;;;;;;;;;;;;21.12;42.59;94765.56;2041990;29;1117;-59
2022/06/21 03:32:09;;;;;;;;;;;;;;;21.08;42.69;94767.84;2042223;29;1036;-59
2022/06/21 03:33:12;;;;;;;;;;;;;;;21.15;42.29;94773.97;2041533;29;1522;-56
2022/06/21 03:34:15;;;;;;;;;;;;;;;21.15;42.42;94773.97;2034170;29;1065;-58
2022/06/21 03:35:18;;;;;;;;;;;;;;;21.18;42.25;94770.06;2034644;29;1442;-59
2022/06/21 03:36:22;;;;;;;;;;;;;;;21.17;42.21;94779.06;2033908;29;1040;-59
2022/06/21 03:37:24;;;;;;;;;;;;;;;21.13;42.16;94780.56;2036460;29;1512;-58
2022/06/21 03:38:27;;;;;;;;;;;;;;;21.16;42.06;94780.91;2041893;29;1113;-59
2022/06/21 03:42:08;;;;;;;;;;;;;;;21.13;42.14;94778.69;2034159;29;1094;-57
2022/06/21 03:43:14;;;;;;;;;;;;;;;21.17;42.21;94779.06;2040061;29;1699;-59
2022/06/21 03:44:21;;;;;;;;;;;;;;;21.23;42.24;94778.25;2037982;29;1488;-59
2022/06/21 03:45:26;;;;;;;;;;;;;;;21.20;42.24;94782.16;2039885;29;1717;-59
2022/06/21 03:46:32;;;;;;;;;;;;;;;21.19;42.13;94779.69;2040894;29;1708;-59
2022/06/21 03:47:37;;;;;;;;;;;;;;;21.16;42.36;94788.13;2040029;29;1641;-59
2022/06/21 03:48:43;;;;;;;;;;;;;;;21.16;42.28;94783.59;2039231;29;1524;-60
2022/06/21 03:49:49;;;;;;;;;;;;;;;21.20;42.40;94784.84;2033897;29;1045;-59
2022/06/21 03:50:54;;;;;;;;;;;;;;;21.19;42.05;94783.19;2028897;29;1366;-58
2022/06/21 03:51:59;;;;;;;;;;;;;;;21.39;42.58;94779.50;2025436;29;1257;-56
2022/06/21 03:53:03;;;;;;;;;;;;;;;21.68;41.44;94791.28;2029114;29;1169;-58
2022/06/21 03:54:08;;;;;;;;;;;;;;;21.47;42.11;94800.59;2034139;29;1504;-58
2022/06/21 03:55:20;;;;;;;;;;;;;;;21.38;42.64;94796.56;2038361;29;1985;-68
2022/06/21 03:56:26;;;;;;;;;;;;;;;21.35;43.20;94789.00;2050012;28;1037;-59
2022/06/21 03:57:31;;;;;;;;;;;;;;;21.32;43.27;94797.47;2046070;28;1531;-59
2022/06/21 03:58:48;;;;;;;;;;;;;;;21.34;43.26;94795.38;2040122;29;1510;-56
2022/06/21 03:59:51;;;;;;;;;;;;;;;21.37;43.83;94800.28;2041282;29;1499;-59
2022/06/21 04:00:56;;;;;;;;;;;;;;;21.38;43.85;94799.25;2041093;29;1990;-60
2022/06/21 04:02:01;;;;;;;;;;;;;;;21.66;43.47;94798.75;2034586;29;1730;-62
2022/06/21 04:03:08;;;;;;;;;;;;;;;21.52;43.84;94805.28;2028983;29;1162;-58
2022/06/21 04:04:13;;;;;;;;;;;;;;;21.48;43.96;94794.19;2034854;29;1565;-59
2022/06/21 04:05:18;;;;;;;;;;;;;;;21.28;44.87;94793.59;2036965;29;1341;-60
2022/06/21 04:06:24;;;;;;;;;;;;;;;21.21;45.06;94791.81;2041498;29;1156;-58
2022/06/21 04:07:30;;;;;;;;;;;;;;;21.28;45.84;94793.59;2040594;29;1803;-56
2022/06/21 04:08:36;;;;;;;;;;;;;;;21.28;45.10;94801.59;2040966;29;1672;-57
2022/06/21 04:09:42;;;;;;;;;;;;;;;21.15;45.87;94794.53;2035496;29;1722;-53
2022/06/21 04:10:46;;;;;;;;;;;;;;;21.16;45.48;94796.16;2046296;29;1472;-61
2022/06/21 04:11:53;;;;;;;;;;;;;;;21.01;45.65;94783.13;2041776;29;1416;-60
2022/06/21 04:12:58;;;;;;;;;;;;;;;20.91;45.73;94780.94;2041814;29;1122;-58
2022/06/21 04:14:07;;;;;;;;;;;;;;;20.81;46.70;94785.19;2033141;29;1715;-56
2022/06/21 04:15:12;;;;;;;;;;;;;;;20.82;45.82;94781.47;2039265;29;1694;-59
2022/06/21 04:16:17;;;;;;;;;;;;;;;20.73;45.94;94784.41;2041544;29;1172;-58
2022/06/21 04:17:22;;;;;;;;;;;;;;;20.70;46.28;94776.81;2041808;29;1029;-57
2022/06/21 04:18:30;;;;;;;;;;;;;;;20.67;46.32;94774.59;2041531;29;1203;-59
2022/06/21 04:19:35;;;;;;;;;;;;;;;20.68;46.11;94783.41;2041962;29;1018;-57
2022/06/21 04:20:41;;;;;;;;;;;;;;;20.65;46.27;94770.50;2044435;29;1604;-59
2022/06/21 04:21:45;;;;;;;;;;;;;;;20.63;46.22;94776.06;2036915;29;1969;-57
2022/06/21 04:22:51;;;;;;;;;;;;;;;20.68;46.46;94781.56;2033769;29;1181;-56
2022/06/21 04:24:05;;;;;;;;;;;;;;;20.61;46.42;94777.31;2033171;29;1117;-58
2022/06/21 04:25:11;;;;;;;;;;;;;;;20.56;46.59;94783.31;2026468;29;1103;-58
2022/06/21 04:26:17;;;;;;;;;;;;;;;20.64;46.44;94780.38;2033298;29;998;-58
2022/06/21 04:27:23;;;;;;;;;;;;;;;20.54;46.67;94785.38;2033163;29;997;-58
2022/06/21 04:28:27;;;;;;;;;;;;;;;20.64;46.69;94783.03;2033540;29;1001;-59
2022/06/21 04:29:34;;;;;;;;;;;;;;;20.66;46.83;94780.13;2033806;29;1125;-60
2022/06/21 04:30:38;;;;;;;;;;;;;;;20.67;46.97;94787.13;2033627;29;1055;-57
2022/06/21 04:31:44;;;;;;;;;;;;;;;20.70;46.74;94776.81;2033839;29;1161;-58
2022/06/21 04:32:49;;;;;;;;;;;;;;;20.72;46.91;94780.09;2033891;29;1173;-58
2022/06/21 04:33:55;;;;;;;;;;;;;;;20.72;46.93;94777.44;2033731;29;1093;-58
2022/06/21 04:35:01;;;;;;;;;;;;;;;20.68;47.37;94773.56;2033988;29;1028;-53
2022/06/21 04:36:05;;;;;;;;;;;;;;;20.64;47.43;94767.03;2028788;29;1190;-58
2022/06/21 04:37:10;;;;;;;;;;;;;;;20.61;47.30;94772.00;2028871;29;1185;-57
2022/06/21 04:38:17;;;;;;;;;;;;;;;20.60;47.40;94765.84;2033896;29;1016;-55
2022/06/21 04:39:23;;;;;;;;;;;;;;;20.58;47.09;94769.75;2033154;29;1054;-56
2022/06/21 04:40:29;;;;;;;;;;;;;;;20.49;47.14;94766.53;2032732;29;1201;-55
2022/06/21 04:41:36;;;;;;;;;;;;;;;20.32;47.46;94764.34;2033105;29;1966;-58
2022/06/21 04:42:41;;;;;;;;;;;;;;;20.37;47.73;94761.06;2033040;29;1115;-57
2022/06/21 04:43:47;;;;;;;;;;;;;;;20.40;47.49;94760.63;2032714;29;1098;-57
2022/06/21 04:44:54;;;;;;;;;;;;;;;20.48;47.67;94755.03;2033057;29;1000;-58
2022/06/21 04:46:01;;;;;;;;;;;;;;;20.54;47.63;94756.00;2033187;29;1072;-55
2022/06/21 04:47:05;;;;;;;;;;;;;;;20.63;47.72;94756.56;2032737;29;1083;-55
2022/06/21 04:48:20;;;;;;;;;;;;;;;20.63;47.62;94760.06;2025885;29;1072;-59
2022/06/21 04:49:25;;;;;;;;;;;;;;;20.59;48.01;94755.38;2033006;29;1062;-58
2022/06/21 04:50:31;;;;;;;;;;;;;;;20.65;47.83;94762.50;2032423;29;1118;-58
2022/06/21 04:51:35;;;;;;;;;;;;;;;20.56;48.02;94760.09;2033075;29;1008;-58
2022/06/21 04:52:39;;;;;;;;;;;;;;;20.53;48.08;94759.72;2032981;29;1032;-58
2022/06/21 04:53:46;;;;;;;;;;;;;;;20.51;48.08;94769.78;2033016;29;1118;-58
2022/06/21 04:54:49;;;;;;;;;;;;;;;20.49;48.09;94766.53;2033759;29;1046;-58
2022/06/21 04:55:55;;;;;;;;;;;;;;;20.60;48.07;94770.34;2033760;29;1008;-58
2022/06/21 04:57:01;;;;;;;;;;;;;;;20.54;47.82;94769.34;2033792;29;1075;-58
2022/06/21 04:58:03;;;;;;;;;;;;;;;20.56;47.71;94762.75;2033389;29;1169;-58
2022/06/21 04:59:11;;;;;;;;;;;;;;;20.52;47.78;94771.44;2028426;29;1186;-58
2022/06/21 05:00:16;;;;;;;;;;;;;;;20.54;48.33;94769.34;2033896;29;1284;-56
2022/06/21 05:01:32;;;;;;;;;;;;;;;20.60;48.08;94776.50;2035331;29;1060;-57
2022/06/21 05:02:38;;;;;;;;;;;;;;;20.64;48.18;94769.69;2035197;29;1196;-54
2022/06/21 05:03:45;;;;;;;;;;;;;;;20.74;48.41;94779.88;2035368;29;1020;-59
2022/06/21 05:04:49;;;;;;;;;;;;;;;20.71;48.46;94774.97;2035216;29;1110;-58
2022/06/21 05:05:51;;;;;;;;;;;;;;;20.77;47.97;94771.41;2034982;29;1020;-58
2022/06/21 05:06:56;;;;;;;;;;;;;;;20.76;47.88;94777.81;2035217;29;2000;-58
2022/06/21 05:07:59;;;;;;;;;;;;;;;20.79;47.79;94778.19;2035421;29;1008;-58
2022/06/21 05:09:02;;;;;;;;;;;;;;;20.76;48.61;94783.97;2035173;29;1122;-61
2022/06/21 05:10:05;;;;;;;;;;;;;;;20.81;49.01;94785.19;2044916;28;1133;-58
2022/06/21 05:11:10;;;;;;;;;;;;;;;20.84;49.08;94785.53;2046026;28;1133;-57
2022/06/21 05:12:18;;;;;;;;;;;;;;;20.80;48.40;94787.03;2051008;28;1530;-58
2022/06/21 05:13:23;;;;;;;;;;;;;;;20.78;48.57;94789.09;2050588;28;1176;-59
2022/06/21 05:14:28;;;;;;;;;;;;;;;20.73;48.75;94794.25;2051064;28;1164;-73
2022/06/21 05:15:32;;;;;;;;;;;;;;;20.74;48.47;94796.72;2050873;29;1129;-58
2022/06/21 05:16:37;;;;;;;;;;;;;;;20.71;48.53;94797.13;2051022;28;1021;-58
2022/06/21 05:17:47;;;;;;;;;;;;;;;20.74;49.36;94794.06;2050938;29;1243;-57
2022/06/21 05:18:52;;;;;;;;;;;;;;;20.80;48.83;94797.72;2051032;28;1019;-58
2022/06/21 05:19:56;;;;;;;;;;;;;;;20.74;49.03;94802.06;2050560;28;1038;-58
2022/06/21 05:21:00;;;;;;;;;;;;;;;20.73;49.56;94800.41;2050416;29;1214;-55
2022/06/21 05:22:05;;;;;;;;;;;;;;;20.76;49.21;94805.31;2042188;28;2244;-60
2022/06/21 05:23:08;;;;;;;;;;;;;;;20.72;49.41;94803.31;2050678;28;1194;-59
2022/06/21 05:24:11;;;;;;;;;;;;;;;20.64;49.25;94800.91;2050990;28;1164;-58
2022/06/21 05:25:19;;;;;;;;;;;;;;;20.72;49.18;94803.31;2050838;28;1167;-57
2022/06/21 05:26:25;;;;;;;;;;;;;;;20.75;49.29;94803.69;2051075;28;1090;-59
2022/06/21 05:27:32;;;;;;;;;;;;;;;20.75;49.49;94803.69;2050686;28;1038;-58
2022/06/21 05:28:37;;;;;;;;;;;;;;;20.73;49.57;94805.75;2050947;29;1036;-56
2022/06/21 05:29:44;;;;;;;;;;;;;;;20.90;49.31;94797.22;2051050;28;998;-57
2022/06/21 05:30:50;;;;;;;;;;;;;;;20.89;48.96;94803.59;2050735;28;1165;-56
2022/06/21 05:31:55;;;;;;;;;;;;;;;20.90;49.01;94799.88;2050837;28;1089;-57
2022/06/21 05:33:00;;;;;;;;;;;;;;;20.91;48.80;94801.50;2046230;28;1092;-65
2022/06/21 05:34:07;;;;;;;;;;;;;;;20.94;48.69;94798.38;2046215;28;1204;-58
2022/06/21 05:35:11;;;;;;;;;;;;;;;20.93;48.97;94804.78;2050338;29;1970;-56
2022/06/21 05:36:16;;;;;;;;;;;;;;;21.11;48.68;94802.13;2050956;28;1158;-57
2022/06/21 05:37:24;;;;;;;;;;;;;;;21.26;48.62;94809.03;2050883;28;1085;-55
2022/06/21 05:38:30;;;;;;;;;;;;;;;21.36;48.41;94804.81;2050911;28;1179;-57
2022/06/21 05:39:36;;;;;;;;;;;;;;;21.46;47.65;94806.97;2050919;28;1090;-57
2022/06/21 05:40:43;;;;;;;;;;;;;;;21.48;48.42;94807.56;2050617;28;1105;-55
2022/06/21 05:41:46;;;;;;;;;;;;;;;21.42;47.57;94798.56;2050747;28;1010;-58
2022/06/21 05:42:49;;;;;;;;;;;;;;;21.52;48.30;94806.09;2050297;28;1903;-58
2022/06/21 05:43:52;;;;;;;;;;;;;;;21.58;47.76;94807.88;2050126;28;980;-57
2022/06/21 05:44:57;;;;;;;;;;;;;;;21.63;47.93;94801.88;2043321;28;1049;-56
2022/06/21 05:46:01;;;;;;;;;;;;;;;21.68;47.43;94796.63;2050563;28;1376;-57